KMHS

Mount Shasta Airport

Mount Shasta, California, USA
METAR KMHS 212256Z AUTO 00000KT 1/2SM HZ BKN022 OVC028 28/06 A3001 RMK AO2 SLP149 T02830061
Observed Flight Rules
Aug-21 @ 22:56 UTC (49 minutes ago) Instrument Flight Rules
Visibility Clouds Conditions
1/2 miles
  • Broken at 2,200' AGL
  • Overcast at 2,800' AGL
  • Haze
Temperatures Readings
Current 28°C / 82°F
Dewpoint 6°C / 43°F
Humidity 25%
Altimeter 30.01" Hg
Pressure 1014.9 hPa
Elevation 1078
METAR KMHS 212256Z AUTO 00000KT 1/2SM HZ BKN022 OVC028 28/06 A3001 RMK AO2 SLP149 T02830061
Observed Flight Rules
Aug-21 @ 22:56 UTC
(49 minutes ago)
LIFR
Clouds
  • Broken at 2,200' AGL
  • Overcast at 2,800' AGL
Conditions
  • Haze
Temperature Dewpoint
28°C / 82°F 6°C / 43°F
Humidity Altimeter Pressure
25% 30.01" Hg 1014.9 hPa